createdAt,value
2018-02-10T00:02:06.827Z,44.50
2018-02-10T00:04:34.308Z,44.50
2018-02-10T00:07:01.740Z,43.90
2018-02-10T00:09:29.326Z,43.70
2018-02-10T00:11:56.966Z,43.50
2018-02-10T00:14:24.540Z,43.10
2018-02-10T00:16:51.997Z,42.80
2018-02-10T00:19:19.451Z,43.00
2018-02-10T00:21:46.883Z,43.00
2018-02-10T00:24:14.337Z,43.20
2018-02-10T00:26:41.819Z,43.40
2018-02-10T00:29:09.279Z,43.30
2018-02-10T00:31:36.711Z,43.40
2018-02-10T00:34:04.145Z,43.30
2018-02-10T00:36:31.643Z,43.50
2018-02-10T00:38:58.807Z,43.40
2018-02-10T00:41:26.421Z,43.40
2018-02-10T00:43:54.010Z,43.60
2018-02-10T00:46:21.460Z,43.80
2018-02-10T00:48:48.923Z,43.70
2018-02-10T00:51:16.351Z,43.70
2018-02-10T00:53:43.783Z,43.70
2018-02-10T00:56:11.203Z,43.70
2018-02-10T00:58:38.746Z,44.10
2018-02-10T01:01:06.200Z,44.00
2018-02-10T01:03:33.667Z,43.70
2018-02-10T01:06:01.087Z,43.90
2018-02-10T01:08:28.523Z,43.80
2018-02-10T01:10:56.028Z,43.90
2018-02-10T01:13:23.479Z,44.30
2018-02-10T01:15:51.132Z,44.40
2018-02-10T01:18:19.653Z,44.40
2018-02-10T01:20:47.087Z,44.40
2018-02-10T01:23:14.520Z,44.30
2018-02-10T01:25:41.999Z,44.20
2018-02-10T01:28:09.431Z,44.00
2018-02-10T01:30:36.907Z,44.00
2018-02-10T01:33:04.345Z,43.80
2018-02-10T01:35:31.830Z,43.90
2018-02-10T01:37:59.476Z,44.00
2018-02-10T01:40:26.947Z,44.10
2018-02-10T01:42:54.499Z,44.00
2018-02-10T01:45:21.929Z,44.10
2018-02-10T01:47:49.411Z,44.20
2018-02-10T01:50:21.834Z,44.30
2018-02-10T01:52:49.271Z,44.40
2018-02-10T01:55:16.876Z,44.30
2018-02-10T01:57:44.359Z,44.10
2018-02-10T02:00:11.911Z,44.00
2018-02-10T02:02:39.375Z,44.00
2018-02-10T02:05:06.803Z,43.90
2018-02-10T02:07:34.239Z,43.80
2018-02-10T02:10:01.667Z,43.70
2018-02-10T02:12:29.095Z,44.10
2018-02-10T02:14:56.531Z,44.00
2018-02-10T02:17:24.016Z,44.10
2018-02-10T02:19:51.763Z,44.10
2018-02-10T02:22:19.248Z,44.00
2018-02-10T02:24:46.787Z,44.20
2018-02-10T02:27:14.214Z,44.20
2018-02-10T02:29:41.638Z,44.40
2018-02-10T02:32:09.156Z,44.40
2018-02-10T02:34:36.591Z,44.30
2018-02-10T02:37:04.012Z,44.20
2018-02-10T02:39:31.520Z,44.20
2018-02-10T02:41:58.955Z,44.50
2018-02-10T02:44:26.396Z,44.30
2018-02-10T02:46:53.831Z,45.00
2018-02-10T02:49:21.263Z,45.70
2018-02-10T02:51:48.699Z,45.90
2018-02-10T02:54:16.199Z,46.00
2018-02-10T02:56:43.714Z,47.10
2018-02-10T02:59:11.479Z,48.40
2018-02-10T03:01:39.241Z,48.30
2018-02-10T03:04:06.671Z,48.30
2018-02-10T03:06:34.128Z,49.50
2018-02-10T03:09:01.567Z,49.00
2018-02-10T03:11:28.986Z,48.80
2018-02-10T03:13:56.425Z,48.30
2018-02-10T03:16:23.879Z,49.00
2018-02-10T03:18:51.346Z,49.70
2018-02-10T03:21:18.771Z,49.90
2018-02-10T03:23:46.345Z,49.90
2018-02-10T03:26:13.770Z,50.30
2018-02-10T03:28:41.191Z,49.70
2018-02-10T03:31:08.620Z,49.10
2018-02-10T03:33:36.079Z,49.00
2018-02-10T03:36:03.535Z,49.10
2018-02-10T03:38:30.999Z,48.60
2018-02-10T03:40:58.692Z,48.10
2018-02-10T03:43:26.922Z,47.50
2018-02-10T03:45:54.685Z,47.40
2018-02-10T03:48:22.141Z,47.00
2018-02-10T03:50:49.571Z,46.60
2018-02-10T03:53:16.997Z,46.10
2018-02-10T03:55:44.516Z,45.30
2018-02-10T03:58:12.147Z,44.80
2018-02-10T04:00:39.723Z,44.70
2018-02-10T04:03:07.182Z,44.30
2018-02-10T04:05:34.617Z,44.10
2018-02-10T04:08:02.094Z,44.00
2018-02-10T04:10:29.544Z,44.50
2018-02-10T04:12:56.964Z,44.70
2018-02-10T04:15:24.402Z,44.60
2018-02-10T04:17:51.824Z,44.50
2018-02-10T04:20:19.285Z,44.60
2018-02-10T04:22:46.739Z,44.40
2018-02-10T04:25:14.216Z,44.20
2018-02-10T04:27:41.631Z,44.00
2018-02-10T04:30:09.118Z,44.10
2018-02-10T04:32:36.599Z,44.10
2018-02-10T04:35:04.111Z,44.10
2018-02-10T04:37:31.531Z,44.20
2018-02-10T04:39:58.968Z,44.40
2018-02-10T04:42:26.393Z,44.40
2018-02-10T04:44:53.827Z,44.00
2018-02-10T04:47:21.295Z,44.10
2018-02-10T04:49:48.853Z,44.40
2018-02-10T04:52:16.325Z,44.20
2018-02-10T04:54:43.763Z,44.20
2018-02-10T04:57:11.395Z,45.20
2018-02-10T04:59:38.985Z,45.60
2018-02-10T05:02:06.433Z,45.10
2018-02-10T05:04:33.895Z,45.20
2018-02-10T05:07:01.310Z,45.40
2018-02-10T05:09:28.814Z,45.60
2018-02-10T05:11:56.446Z,45.90
2018-02-10T05:14:23.903Z,45.90
2018-02-10T05:16:51.478Z,45.80
2018-02-10T05:19:18.907Z,45.60
2018-02-10T05:21:46.332Z,45.50
2018-02-10T05:24:14.527Z,46.00
2018-02-10T05:26:42.275Z,46.00
2018-02-10T05:29:09.999Z,45.60
2018-02-10T05:31:37.505Z,46.00
2018-02-10T05:34:05.223Z,46.00
2018-02-10T05:36:32.671Z,46.30
2018-02-10T05:39:00.315Z,46.40
2018-02-10T05:41:27.738Z,46.60
2018-02-10T05:43:55.959Z,46.70
2018-02-10T05:46:23.383Z,46.60
2018-02-10T05:48:51.583Z,46.30
2018-02-10T05:51:19.087Z,46.20
2018-02-10T05:53:47.603Z,46.50
2018-02-10T05:56:15.024Z,46.50
2018-02-10T05:58:42.547Z,46.10
2018-02-10T06:01:09.970Z,45.50
2018-02-10T06:03:37.395Z,45.20
2018-02-10T06:06:05.703Z,44.70
2018-02-10T06:08:33.181Z,44.70
2018-02-10T06:11:00.748Z,44.50
2018-02-10T06:13:28.514Z,43.90
2018-02-10T06:15:55.972Z,44.10
2018-02-10T06:18:23.394Z,44.50
2018-02-10T06:20:50.828Z,44.20
2018-02-10T06:23:18.254Z,43.80
2018-02-10T06:25:45.687Z,43.60
2018-02-10T06:28:13.243Z,43.70
2018-02-10T06:30:40.698Z,42.70
2018-02-10T06:33:08.126Z,41.40
2018-02-10T06:35:35.549Z,40.70
2018-02-10T06:38:03.077Z,40.50
2018-02-10T06:40:30.508Z,41.00
2018-02-10T06:42:57.935Z,40.90
2018-02-10T06:45:25.443Z,40.80
2018-02-10T06:47:52.866Z,40.60
2018-02-10T06:50:20.307Z,40.50
2018-02-10T06:52:47.727Z,40.60
2018-02-10T06:55:15.204Z,41.00
2018-02-10T06:57:42.691Z,42.10
2018-02-10T07:00:10.521Z,42.60
2018-02-10T07:02:38.104Z,43.00
2018-02-10T07:05:05.663Z,43.10
2018-02-10T07:07:33.081Z,42.30
2018-02-10T07:10:00.534Z,42.40
2018-02-10T07:12:27.983Z,42.40
2018-02-10T07:14:55.542Z,43.30
2018-02-10T07:17:23.000Z,42.40
2018-02-10T07:19:50.633Z,42.40
2018-02-10T07:22:18.223Z,42.20
2018-02-10T07:24:45.991Z,42.00
2018-02-10T07:27:13.443Z,42.00
2018-02-10T07:29:41.212Z,41.50
2018-02-10T07:32:08.960Z,41.20
2018-02-10T07:34:36.743Z,40.70
2018-02-10T07:37:04.174Z,40.50
2018-02-10T07:39:31.647Z,39.90
2018-02-10T07:41:59.104Z,39.90
2018-02-10T07:44:26.535Z,39.40
2018-02-10T07:46:53.959Z,39.00
2018-02-10T07:49:21.481Z,39.00
2018-02-10T07:51:48.928Z,38.30
2018-02-10T07:54:16.373Z,38.60
2018-02-10T07:56:43.998Z,38.90
2018-02-10T07:59:11.535Z,38.70
2018-02-10T08:01:38.991Z,39.00
2018-02-10T08:04:06.559Z,38.80
2018-02-10T08:06:34.016Z,38.70
2018-02-10T08:09:01.631Z,38.60
2018-02-10T08:11:29.075Z,38.50
2018-02-10T08:13:56.541Z,38.70
2018-02-10T08:16:24.087Z,38.90
2018-02-10T08:18:51.718Z,39.20
2018-02-10T08:21:19.222Z,39.20
2018-02-10T08:23:46.690Z,39.60
2018-02-10T08:26:14.175Z,39.30
2018-02-10T08:28:41.591Z,39.20
2018-02-10T08:31:09.024Z,39.30
2018-02-10T08:33:36.602Z,39.40
2018-02-10T08:36:04.041Z,39.90
2018-02-10T08:38:31.494Z,40.00
2018-02-10T08:40:58.925Z,40.20
2018-02-10T08:43:26.338Z,40.20
2018-02-10T08:45:54.681Z,40.20
2018-02-10T08:48:22.110Z,40.20
2018-02-10T08:50:49.703Z,40.30
2018-02-10T08:53:17.119Z,39.40
2018-02-10T08:55:45.541Z,39.70
2018-02-10T08:58:13.169Z,39.70
2018-02-10T09:00:40.763Z,39.50
2018-02-10T09:03:08.701Z,39.50
2018-02-10T09:05:36.205Z,39.00
2018-02-10T09:08:03.644Z,38.80
2018-02-10T09:10:31.128Z,38.90
2018-02-10T09:12:58.556Z,38.70
2018-02-10T09:15:26.147Z,38.80
2018-02-10T09:17:53.743Z,38.80
2018-02-10T09:20:21.266Z,38.60
2018-02-10T09:22:48.687Z,38.20
2018-02-10T09:25:16.180Z,37.80
2018-02-10T09:27:44.367Z,37.90
2018-02-10T09:30:12.080Z,37.80
2018-02-10T09:32:39.539Z,37.10
2018-02-10T09:35:06.999Z,36.50
2018-02-10T09:37:35.219Z,35.80
2018-02-10T09:40:03.436Z,35.30
2018-02-10T09:42:31.075Z,35.30
2018-02-10T09:44:58.545Z,35.40
2018-02-10T09:47:25.989Z,35.20
2018-02-10T09:49:53.487Z,35.20
2018-02-10T09:52:20.939Z,34.70
2018-02-10T09:54:48.507Z,34.50
2018-02-10T09:57:15.937Z,34.50
2018-02-10T09:59:43.564Z,34.70
2018-02-10T10:02:11.151Z,33.30
2018-02-10T10:04:38.620Z,33.40
2018-02-10T10:07:06.262Z,32.70
2018-02-10T10:09:33.680Z,33.70
2018-02-10T10:12:01.910Z,32.30
2018-02-10T10:14:29.359Z,32.30
2018-02-10T10:16:56.798Z,32.30
2018-02-10T10:19:24.232Z,32.40
2018-02-10T10:21:51.664Z,32.10
2018-02-10T10:24:19.200Z,31.80
2018-02-10T10:26:46.690Z,32.10
2018-02-10T10:29:14.293Z,31.30
2018-02-10T10:31:41.860Z,30.90
2018-02-10T10:34:09.323Z,30.90
2018-02-10T10:36:37.083Z,31.70
2018-02-10T10:39:04.519Z,32.10
2018-02-10T10:41:31.991Z,32.20
2018-02-10T10:43:59.440Z,31.30
2018-02-10T10:46:26.886Z,31.90
2018-02-10T10:48:54.314Z,31.00
2018-02-10T10:51:21.755Z,31.50
2018-02-10T10:53:49.276Z,31.30
2018-02-10T10:56:16.908Z,31.50
2018-02-10T10:58:44.479Z,32.00
2018-02-10T11:01:11.952Z,31.00
2018-02-10T11:03:39.584Z,32.20
2018-02-10T11:06:07.171Z,32.20
2018-02-10T11:08:34.933Z,32.10
2018-02-10T11:11:02.387Z,32.70
2018-02-10T11:13:29.835Z,32.20
2018-02-10T11:15:57.266Z,32.90
2018-02-10T11:18:24.940Z,33.50
2018-02-10T11:20:52.378Z,33.30
2018-02-10T11:23:20.903Z,33.90
2018-02-10T11:25:48.354Z,33.90
2018-02-10T11:28:15.763Z,34.40
2018-02-10T11:30:43.211Z,34.50
2018-02-10T11:33:10.663Z,34.80
2018-02-10T11:35:38.203Z,35.40
2018-02-10T11:38:05.631Z,36.40
2018-02-10T11:40:33.066Z,36.60
2018-02-10T11:43:00.492Z,37.50
2018-02-10T11:45:27.928Z,38.10
2018-02-10T11:47:55.460Z,38.80
2018-02-10T11:50:22.888Z,38.40
2018-02-10T11:52:50.320Z,39.00
2018-02-10T11:55:17.743Z,39.40
2018-02-10T11:57:45.311Z,39.50
2018-02-10T12:00:12.733Z,39.70
2018-02-10T12:02:40.180Z,39.50
2018-02-10T12:05:07.596Z,39.00
2018-02-10T12:07:35.083Z,37.80
2018-02-10T12:10:02.565Z,37.70
2018-02-10T12:12:30.023Z,36.60
2018-02-10T12:14:57.452Z,35.80
2018-02-10T12:17:24.888Z,37.00
2018-02-10T12:19:52.308Z,36.90
2018-02-10T12:22:19.759Z,36.60
2018-02-10T12:24:47.309Z,36.90
2018-02-10T12:27:14.936Z,36.20
2018-02-10T12:29:42.529Z,35.20
2018-02-10T12:32:09.955Z,34.50
2018-02-10T12:34:37.371Z,31.90
2018-02-10T12:37:04.823Z,29.20
2018-02-10T12:39:33.264Z,29.80
2018-02-10T12:42:00.716Z,29.80
2018-02-10T12:44:28.131Z,28.10
2018-02-10T12:46:55.639Z,28.50
2018-02-10T12:49:28.733Z,28.80
2018-02-10T12:51:56.300Z,28.60
2018-02-10T12:54:23.820Z,28.50
2018-02-10T12:56:51.251Z,27.80
2018-02-10T12:59:18.670Z,27.60
2018-02-10T13:01:46.120Z,26.90
2018-02-10T13:04:13.544Z,26.50
2018-02-10T13:06:41.119Z,26.50
2018-02-10T13:09:08.555Z,26.90
2018-02-10T13:11:36.031Z,26.80
2018-02-10T13:14:03.461Z,25.70
2018-02-10T13:16:30.895Z,26.10
2018-02-10T13:18:58.322Z,26.30
2018-02-10T13:21:25.752Z,26.30
2018-02-10T13:23:53.180Z,26.40
2018-02-10T13:26:20.772Z,25.70
2018-02-10T13:28:48.199Z,25.90
2018-02-10T13:31:15.693Z,26.00
2018-02-10T13:33:43.365Z,25.50
2018-02-10T13:36:10.912Z,25.10
2018-02-10T13:38:38.335Z,25.40
2018-02-10T13:41:06.652Z,25.10
2018-02-10T13:43:34.203Z,25.00
2018-02-10T13:46:01.646Z,25.00
2018-02-10T13:48:38.692Z,25.40
2018-02-10T13:51:06.136Z,25.90
2018-02-10T13:53:33.573Z,25.80
2018-02-10T13:56:01.007Z,25.90
2018-02-10T13:58:28.647Z,25.30
2018-02-10T14:00:56.098Z,26.20
2018-02-10T14:03:23.582Z,25.30
2018-02-10T14:05:51.001Z,25.40
2018-02-10T14:08:18.473Z,25.40
2018-02-10T14:10:45.915Z,25.10
2018-02-10T14:13:13.501Z,25.10
2018-02-10T14:15:40.922Z,25.20
2018-02-10T14:18:08.408Z,24.60
2018-02-10T14:20:35.835Z,25.20
2018-02-10T14:23:03.263Z,25.00
2018-02-10T14:25:30.696Z,25.20
2018-02-10T14:27:58.131Z,25.20
2018-02-10T14:30:25.912Z,25.10
2018-02-10T14:32:53.473Z,25.60
2018-02-10T14:35:21.091Z,26.20
2018-02-10T14:37:48.675Z,26.10
2018-02-10T14:40:16.103Z,25.80
2018-02-10T14:42:43.552Z,26.00
2018-02-10T14:45:10.983Z,26.20
2018-02-10T14:47:38.416Z,26.00
2018-02-10T14:50:05.857Z,26.00
2018-02-10T14:52:33.421Z,26.20
2018-02-10T14:55:00.843Z,26.10
2018-02-10T14:57:28.291Z,26.10
2018-02-10T14:59:55.719Z,26.00
2018-02-10T15:02:23.153Z,25.90
2018-02-10T15:04:50.575Z,26.40
2018-02-10T15:07:18.152Z,27.00
2018-02-10T15:09:45.604Z,27.40
2018-02-10T15:12:13.059Z,27.50
2018-02-10T15:14:40.466Z,27.20
2018-02-10T15:17:07.983Z,27.40
2018-02-10T15:19:35.411Z,27.70
2018-02-10T15:22:02.849Z,27.80
2018-02-10T15:24:30.275Z,27.90
2018-02-10T15:26:57.716Z,27.70
2018-02-10T15:29:25.264Z,28.20
2018-02-10T15:32:04.559Z,28.00
2018-02-10T15:37:35.059Z,28.40
2018-02-10T15:40:02.604Z,27.60
2018-02-10T15:42:30.147Z,27.80
2018-02-10T15:44:57.579Z,28.20
2018-02-10T15:47:25.016Z,27.90
2018-02-10T15:49:52.531Z,27.80
2018-02-10T15:52:20.023Z,27.60
2018-02-10T15:54:47.617Z,27.70
2018-02-10T15:57:15.123Z,27.70
2018-02-10T15:59:42.565Z,28.10
2018-02-10T16:02:10.111Z,28.30
2018-02-10T16:04:37.580Z,28.40
2018-02-10T16:07:05.211Z,28.50
2018-02-10T16:09:32.700Z,28.70
2018-02-10T16:12:00.252Z,28.80
2018-02-10T16:14:27.668Z,29.00
2018-02-10T16:16:55.159Z,29.00
2018-02-10T16:19:22.791Z,29.80
2018-02-10T16:21:50.381Z,30.00
2018-02-10T16:24:18.007Z,30.00
2018-02-10T16:26:45.471Z,30.60
2018-02-10T16:29:12.991Z,30.70
2018-02-10T16:31:40.440Z,30.80
2018-02-10T16:34:07.877Z,31.20
2018-02-10T16:36:35.327Z,31.40
2018-02-10T16:39:02.806Z,31.90
2018-02-10T16:41:30.238Z,32.20
2018-02-10T16:43:57.798Z,32.20
2018-02-10T16:46:25.225Z,32.20
2018-02-10T16:48:52.708Z,32.30
2018-02-10T16:51:20.335Z,32.50
2018-02-10T16:53:47.819Z,32.90
2018-02-10T16:56:15.388Z,33.20
2018-02-10T16:58:43.151Z,33.00
2018-02-10T17:01:10.771Z,33.00
2018-02-10T17:03:38.271Z,33.00
2018-02-10T17:06:05.828Z,33.50
2018-02-10T17:08:33.264Z,34.00
2018-02-10T17:11:00.690Z,34.00
2018-02-10T17:13:28.135Z,34.20
2018-02-10T17:15:55.644Z,34.30
2018-02-10T17:18:23.073Z,34.10
2018-02-10T17:20:50.491Z,34.80
2018-02-10T17:23:17.924Z,34.80
2018-02-10T17:25:45.476Z,35.10
2018-02-10T17:28:12.923Z,35.00
2018-02-10T17:30:40.384Z,35.00
2018-02-10T17:33:07.834Z,35.20
2018-02-10T17:35:35.255Z,35.10
2018-02-10T17:38:02.756Z,35.50
2018-02-10T17:40:30.267Z,35.60
2018-02-10T17:42:57.799Z,36.00
2018-02-10T17:45:25.462Z,36.10
2018-02-10T17:47:53.071Z,36.20
2018-02-10T17:50:20.496Z,36.70
2018-02-10T17:52:48.712Z,37.50
2018-02-10T17:55:16.175Z,37.40
2018-02-10T17:57:43.614Z,37.30
2018-02-10T18:00:11.100Z,37.40
2018-02-10T18:02:38.539Z,37.50
2018-02-10T18:05:06.004Z,37.50
2018-02-10T18:07:33.690Z,37.30
2018-02-10T18:10:01.219Z,36.90
2018-02-10T18:12:28.862Z,36.70
2018-02-10T18:14:56.440Z,36.70
2018-02-10T18:17:24.079Z,36.70
2018-02-10T18:19:51.659Z,37.10
2018-02-10T18:22:19.095Z,37.40
2018-02-10T18:24:46.545Z,37.90
2018-02-10T18:27:13.975Z,38.10
2018-02-10T18:29:41.484Z,38.30
2018-02-10T18:32:09.124Z,38.50
2018-02-10T18:34:36.559Z,38.50
2018-02-10T18:37:04.754Z,39.00
2018-02-10T18:39:32.210Z,38.80
2018-02-10T18:41:59.682Z,38.80
2018-02-10T18:44:27.120Z,38.90
2018-02-10T18:46:54.609Z,38.30
2018-02-10T18:49:22.051Z,38.80
2018-02-10T18:51:49.479Z,38.80
2018-02-10T18:54:16.916Z,39.00
2018-02-10T18:56:44.343Z,38.40
2018-02-10T18:59:11.882Z,38.40
2018-02-10T19:01:39.576Z,38.40
2018-02-10T19:04:07.014Z,38.60
2018-02-10T19:06:34.565Z,38.70
2018-02-10T19:09:02.023Z,39.00
2018-02-10T19:11:29.427Z,39.20
2018-02-10T19:13:56.928Z,39.00
2018-02-10T19:16:24.379Z,39.10
2018-02-10T19:18:51.844Z,39.50
2018-02-10T19:21:19.467Z,39.50
2018-02-10T19:23:47.061Z,39.40
2018-02-10T19:26:14.572Z,39.50
2018-02-10T19:28:42.184Z,39.50
2018-02-10T19:31:09.750Z,39.50
2018-02-10T19:33:37.184Z,40.10
2018-02-10T19:36:04.611Z,39.70
2018-02-10T19:38:32.111Z,39.80
2018-02-10T19:41:00.380Z,40.30
2018-02-10T19:43:28.527Z,40.10
2018-02-10T19:45:55.951Z,40.10
2018-02-10T19:48:23.418Z,40.00
2018-02-10T19:50:50.846Z,39.50
2018-02-10T19:53:18.383Z,39.50
2018-02-10T19:55:45.832Z,39.60
2018-02-10T19:58:13.264Z,39.20
2018-02-10T20:00:40.693Z,39.20
2018-02-10T20:03:08.128Z,38.80
2018-02-10T20:05:36.592Z,39.40
2018-02-10T20:08:04.049Z,38.70
2018-02-10T20:10:31.543Z,38.70
2018-02-10T20:12:59.175Z,38.50
2018-02-10T20:15:26.627Z,37.90
2018-02-10T20:17:54.090Z,38.10
2018-02-10T20:20:21.632Z,38.30
2018-02-10T20:22:49.079Z,37.40
2018-02-10T20:25:16.535Z,38.20
2018-02-10T20:27:44.001Z,38.10
2018-02-10T20:30:12.280Z,38.80
2018-02-10T20:32:39.828Z,38.30
2018-02-10T20:35:07.467Z,39.40
2018-02-10T20:37:34.890Z,39.90
2018-02-10T20:40:03.179Z,40.60
2018-02-10T20:42:30.575Z,40.50
2018-02-10T20:44:58.207Z,40.40
2018-02-10T20:47:25.806Z,40.20
2018-02-10T20:49:53.241Z,40.30
2018-02-10T20:52:20.663Z,40.90
2018-02-10T20:54:48.224Z,40.50
2018-02-10T20:57:15.931Z,40.00
2018-02-10T20:59:43.374Z,38.60
2018-02-10T21:02:10.803Z,38.50
2018-02-10T21:04:38.295Z,38.20
2018-02-10T21:07:05.733Z,37.30
2018-02-10T21:09:33.219Z,37.40
2018-02-10T21:12:00.636Z,37.20
2018-02-10T21:14:28.063Z,37.80
2018-02-10T21:16:55.485Z,36.70
2018-02-10T21:19:23.031Z,37.00
2018-02-10T21:21:50.547Z,36.70
2018-02-10T21:24:18.011Z,37.50
2018-02-10T21:26:45.609Z,36.70
2018-02-10T21:29:13.362Z,36.10
2018-02-10T21:31:40.842Z,35.80
2018-02-10T21:34:08.298Z,35.60
2018-02-10T21:36:35.723Z,35.40
2018-02-10T21:39:03.187Z,35.20
2018-02-10T21:41:30.623Z,35.60
2018-02-10T21:43:58.077Z,35.70
2018-02-10T21:46:25.900Z,35.40
2018-02-10T21:48:53.353Z,35.50
2018-02-10T21:51:20.793Z,35.50
2018-02-10T21:53:48.360Z,35.00
2018-02-10T21:56:15.981Z,35.10
2018-02-10T21:58:43.412Z,34.80
2018-02-10T22:01:11.609Z,34.60
2018-02-10T22:03:39.039Z,34.40
2018-02-10T22:06:06.492Z,34.20
2018-02-10T22:08:33.943Z,34.30
2018-02-10T22:11:01.360Z,34.30
2018-02-10T22:13:28.915Z,34.40
2018-02-10T22:15:56.336Z,34.40
2018-02-10T22:18:23.764Z,34.40
2018-02-10T22:20:54.400Z,34.80
2018-02-10T22:23:22.108Z,34.80
2018-02-10T22:25:49.523Z,34.70
2018-02-10T22:28:16.943Z,34.40
2018-02-10T22:30:44.383Z,35.00
2018-02-10T22:33:11.957Z,35.10
2018-02-10T22:35:39.580Z,34.90
2018-02-10T22:38:07.055Z,34.70
2018-02-10T22:40:34.491Z,34.90
2018-02-10T22:43:02.168Z,35.60
2018-02-10T22:45:29.844Z,36.30
2018-02-10T22:47:57.261Z,35.90
2018-02-10T22:50:24.691Z,36.00
2018-02-10T22:52:52.202Z,35.80
2018-02-10T22:55:19.628Z,35.80
2018-02-10T22:57:47.035Z,35.80
2018-02-10T23:00:14.559Z,35.80
2018-02-10T23:02:41.975Z,35.50
2018-02-10T23:05:09.394Z,35.40
2018-02-10T23:07:36.815Z,35.60
2018-02-10T23:10:04.402Z,35.70
2018-02-10T23:12:31.821Z,35.80
2018-02-10T23:14:59.249Z,35.80
2018-02-10T23:17:26.771Z,35.80
2018-02-10T23:19:54.266Z,35.80
2018-02-10T23:22:21.695Z,36.50
2018-02-10T23:24:49.132Z,36.00
2018-02-10T23:27:16.111Z,35.90
2018-02-10T23:29:43.643Z,35.80
2018-02-10T23:32:11.072Z,36.50
2018-02-10T23:34:38.504Z,35.80
2018-02-10T23:37:06.691Z,36.00
2018-02-10T23:39:34.184Z,36.00
2018-02-10T23:42:01.612Z,36.10
2018-02-10T23:44:29.040Z,36.00
2018-02-10T23:46:56.447Z,36.20
2018-02-10T23:49:23.913Z,36.40
2018-02-10T23:51:51.397Z,37.50
2018-02-10T23:54:18.839Z,37.20
2018-02-10T23:56:46.376Z,38.00
2018-02-10T23:59:13.812Z,38.10
